Pagrindinis puslapis
METAR-TAF:

METAR-TAF

Oro uostai :

Abadanas, Iranas

platuma: 30-22N, ilguma: 048-15E, Aukštis: 3 m

Dabartinis oras

Ataskaita buvo paskelbta 38 minutes, ne 18:00 UTC
Vėjas 2 kt iš Vakarų/Šiaurės Vakarų
Temperatūra 29°C
Drėgmė 29%
Slėgis 1013 hPa
Matomumas 10 km arba daugiau
nėra debesų žemiau 1500 m ir nėra kamuolinių lietaus debesų

METAR: OIAA 171800Z 29002KT CAVOK 29/09 Q1013

Laikas: 22:08 (18:38 UTC)

Prognozė

Ataskaita buvo paskelbta 1 valandą ir 8 minutes, ne 17:30 UTC
Prognozė galioja nuo 17 metu 18 UTC su 18 metu 24 UTC
Vėjas 10 kt iš Vakarų/Šiaurės Vakarų
Matomumas: 8000 m
Laikinai
nuo 18 metu 06 UTC su 18 metu 15 UTC
Vėjas 20 kt iš Vakarų/Šiaurės Vakarų

TAF: OIAA 171730Z 1718/1824 29010KT 8000 NSC TEMPO 1806/1815 30020KT

Orai ataskaitas ir orų prognozės (METAR, TAF).

turimą stotys yra geltonos ir raudonos taškus žemėlapyje.

Perkelti pele per norėdami pamatyti stoties vardą.

Tada spustelėkite, norėdami matyti oro stebėjimo ir prognozės.

Norėdami pakeisti žemėlapį: spustelėkite ant žalios mygtukų su juodo kryžiaus žemyn,; žalią mygtuką su brūkšneliu, jei norite nutolinti; arba žalių rodyklių gretimoms žemėlapius.


METAR-TAF: